Time,TemperatureF,DewpointF,PressureIn,WindDirection,WindDirectionDegrees,WindSpeedMPH,WindSpeedGustMPH,Humidity,HourlyPrecipIn,Conditions,Clouds,dailyrainin,SoftwareType,DateUTC
2013-01-02 00:02:00,30.2,26.2,30.27,North,0,0.0,0.0,85,0.00,,OVC036,0.00,VWS V12.08,2013-01-02 08:02:00,
2013-01-02 00:07:00,30.2,26.2,30.27,North,0,0.0,0.0,85,0.00,,OVC036,0.00,VWS V12.08,2013-01-02 08:07:00,
2013-01-02 00:12:00,30.0,26.1,30.27,North,0,0.0,0.0,85,0.00,,OVC036,0.00,VWS V12.08,2013-01-02 08:12:00,
2013-01-02 00:17:00,30.0,26.1,30.27,North,0,0.0,0.0,85,0.00,,OVC036,0.00,VWS V12.08,2013-01-02 08:17:00,
2013-01-02 00:22:00,30.0,26.4,30.27,North,0,0.0,0.0,86,0.00,,OVC036,0.00,VWS V12.08,2013-01-02 08:22:00,
2013-01-02 00:27:00,30.0,26.4,30.24,North,0,0.0,0.0,86,0.00,,OVC036,0.00,VWS V12.08,2013-01-02 08:27:00,
2013-01-02 00:32:00,29.8,26.2,30.24,North,0,0.0,0.0,86,0.00,,OVC036,0.00,VWS V12.08,2013-01-02 08:32:00,
2013-01-02 00:37:00,30.0,26.4,30.24,North,0,0.0,0.0,86,0.00,,OVC036,0.00,VWS V12.08,2013-01-02 08:37:00,
2013-01-02 00:42:00,29.8,26.2,30.24,North,0,0.0,0.0,86,0.00,,OVC036,0.00,VWS V12.08,2013-01-02 08:42:00,
2013-01-02 00:47:00,29.8,26.5,30.24,North,0,0.0,0.0,87,0.00,,OVC036,0.00,VWS V12.08,2013-01-02 08:47:00,
2013-01-02 00:52:00,29.8,26.5,30.24,North,0,0.0,0.0,87,0.00,,OVC036,0.00,VWS V12.08,2013-01-02 08:52:00,
2013-01-02 00:57:00,29.8,26.5,30.24,North,0,0.0,0.0,87,0.00,,OVC036,0.00,VWS V12.08,2013-01-02 08:57:00,
2013-01-02 01:02:00,29.7,26.3,30.24,North,0,0.0,0.0,87,0.00,,OVC036,0.00,VWS V12.08,2013-01-02 09:02:00,
2013-01-02 01:07:00,29.5,26.1,30.24,North,0,0.0,0.0,87,0.00,,OVC036,0.00,VWS V12.08,2013-01-02 09:07:00,
2013-01-02 01:12:00,29.5,26.1,30.24,North,0,0.0,0.0,87,0.00,,OVC036,0.00,VWS V12.08,2013-01-02 09:12:00,
2013-01-02 01:17:00,29.5,26.1,30.24,North,0,0.0,0.0,87,0.00,,OVC036,0.00,VWS V12.08,2013-01-02 09:17:00,
2013-01-02 01:22:00,29.5,26.1,30.24,North,0,0.0,0.0,87,0.00,,OVC036,0.00,VWS V12.08,2013-01-02 09:22:00,
2013-01-02 01:27:00,29.5,26.1,30.24,North,0,0.0,0.0,87,0.00,,OVC036,0.00,VWS V12.08,2013-01-02 09:27:00,
2013-01-02 01:32:00,29.5,26.1,30.24,North,0,0.0,0.0,87,0.00,,OVC036,0.00,VWS V12.08,2013-01-02 09:32:00,
2013-01-02 01:37:00,29.5,26.1,30.24,North,0,0.0,0.0,87,0.00,,OVC036,0.00,VWS V12.08,2013-01-02 09:37:00,
2013-01-02 01:42:00,29.5,26.1,30.24,North,0,0.0,0.0,87,0.00,,OVC036,0.00,VWS V12.08,2013-01-02 09:42:00,
2013-01-02 01:47:00,29.5,26.4,30.24,North,0,0.0,0.0,88,0.00,,OVC036,0.00,VWS V12.08,2013-01-02 09:47:00,
2013-01-02 01:52:00,29.5,26.4,30.24,North,0,0.0,0.0,88,0.00,,OVC036,0.00,VWS V12.08,2013-01-02 09:52:00,
2013-01-02 01:57:00,29.5,26.4,30.24,North,0,0.0,0.0,88,0.00,,OVC036,0.00,VWS V12.08,2013-01-02 09:57:00,
2013-01-02 02:02:00,29.3,26.2,30.24,North,0,0.0,0.0,88,0.00,,OVC036,0.00,VWS V12.08,2013-01-02 10:02:00,
2013-01-02 02:07:00,29.1,26.0,30.24,North,0,0.0,0.0,88,0.00,,OVC036,0.00,VWS V12.08,2013-01-02 10:07:00,
2013-01-02 02:12:00,29.1,26.0,30.24,North,0,0.0,0.0,88,0.00,,OVC036,0.00,VWS V12.08,2013-01-02 10:12:00,
2013-01-02 02:17:00,29.1,26.0,30.24,North,0,0.0,0.0,88,0.00,,OVC036,0.00,VWS V12.08,2013-01-02 10:17:00,
2013-01-02 02:22:00,29.3,26.2,30.24,North,0,0.0,0.0,88,0.00,,OVC036,0.00,VWS V12.08,2013-01-02 10:22:00,
2013-01-02 02:27:00,29.1,26.0,30.24,North,0,0.0,0.0,88,0.00,,OVC036,0.00,VWS V12.08,2013-01-02 10:27:00,
2013-01-02 02:32:00,29.5,26.6,30.24,North,0,0.0,0.0,89,0.00,,OVC036,0.00,VWS V12.08,2013-01-02 10:32:00,
2013-01-02 02:37:00,29.5,26.6,30.24,North,0,0.0,0.0,89,0.00,,OVC036,0.00,VWS V12.08,2013-01-02 10:37:00,
2013-01-02 02:42:00,29.3,26.5,30.24,North,0,0.0,0.0,89,0.00,,OVC036,0.00,VWS V12.08,2013-01-02 10:42:00,
2013-01-02 02:47:00,29.5,26.6,30.24,North,0,0.0,0.0,89,0.00,,OVC036,0.00,VWS V12.08,2013-01-02 10:47:00,
2013-01-02 02:52:00,29.5,26.6,30.24,North,0,0.0,0.0,89,0.00,,OVC036,0.00,VWS V12.08,2013-01-02 10:52:00,
2013-01-02 02:57:00,29.3,26.5,30.21,North,0,0.0,0.0,89,0.00,,OVC036,0.00,VWS V12.08,2013-01-02 10:57:00,
2013-01-02 03:02:00,29.1,26.3,30.21,North,0,0.0,0.0,89,0.00,,OVC036,0.00,VWS V12.08,2013-01-02 11:02:00,
2013-01-02 03:07:00,28.9,26.1,30.21,North,0,0.0,0.0,89,0.00,,OVC036,0.00,VWS V12.08,2013-01-02 11:07:00,
2013-01-02 03:12:00,28.9,26.1,30.21,North,0,0.0,0.0,89,0.00,,OVC036,0.00,VWS V12.08,2013-01-02 11:12:00,
2013-01-02 03:17:00,29.1,26.3,30.21,North,0,0.0,0.0,89,0.00,,OVC036,0.00,VWS V12.08,2013-01-02 11:17:00,
2013-01-02 03:22:00,29.1,26.3,30.21,North,0,0.0,0.0,89,0.00,,OVC036,0.00,VWS V12.08,2013-01-02 11:22:00,
2013-01-02 03:27:00,29.1,26.6,30.21,North,0,0.0,0.0,90,0.00,,OVC036,0.00,VWS V12.08,2013-01-02 11:27:00,
2013-01-02 03:32:00,29.1,26.6,30.21,North,0,0.0,0.0,90,0.00,,OVC036,0.00,VWS V12.08,2013-01-02 11:32:00,
2013-01-02 03:37:00,29.3,26.7,30.21,North,0,0.0,0.0,90,0.00,,OVC036,0.00,VWS V12.08,2013-01-02 11:37:00,
2013-01-02 03:42:00,29.3,26.7,30.21,North,0,0.0,0.0,90,0.00,,OVC036,0.00,VWS V12.08,2013-01-02 11:42:00,
2013-01-02 03:47:00,29.1,26.6,30.21,North,0,0.0,0.0,90,0.00,,OVC036,0.00,VWS V12.08,2013-01-02 11:47:00,
2013-01-02 03:52:00,29.1,26.6,30.21,North,0,0.0,0.0,90,0.00,,OVC036,0.00,VWS V12.08,2013-01-02 11:52:00,
2013-01-02 03:57:00,29.1,26.6,30.21,North,0,0.0,0.0,90,0.00,,OVC036,0.00,VWS V12.08,2013-01-02 11:57:00,
2013-01-02 04:02:00,29.1,26.6,30.21,North,0,0.0,0.0,90,0.00,,OVC036,0.00,VWS V12.08,2013-01-02 12:02:00,
2013-01-02 04:07:00,29.1,26.6,30.21,North,0,0.0,0.0,90,0.00,,OVC036,0.00,VWS V12.08,2013-01-02 12:07:00,
2013-01-02 04:12:00,29.1,26.6,30.21,North,0,0.0,0.0,90,0.00,,OVC036,0.00,VWS V12.08,2013-01-02 12:12:00,
2013-01-02 04:17:00,29.3,27.0,30.21,North,0,0.0,0.0,91,0.00,,OVC036,0.00,VWS V12.08,2013-01-02 12:17:00,
2013-01-02 04:22:00,29.3,27.0,30.21,North,0,0.0,0.0,91,0.00,,OVC036,0.00,VWS V12.08,2013-01-02 12:22:00,
2013-01-02 04:27:00,29.3,27.0,30.21,North,0,0.0,0.0,91,0.00,,OVC036,0.00,VWS V12.08,2013-01-02 12:27:00,
2013-01-02 04:32:00,29.3,27.0,30.21,North,0,0.0,0.0,91,0.00,,OVC036,0.00,VWS V12.08,2013-01-02 12:32:00,
2013-01-02 04:37:00,29.3,27.0,30.21,North,0,0.0,0.0,91,0.00,,OVC036,0.00,VWS V12.08,2013-01-02 12:37:00,
2013-01-02 04:42:00,29.1,26.8,30.21,North,0,0.0,0.0,91,0.00,,OVC036,0.00,VWS V12.08,2013-01-02 12:42:00,
2013-01-02 04:47:00,29.1,26.8,30.21,North,0,0.0,0.0,91,0.00,,OVC036,0.00,VWS V12.08,2013-01-02 12:47:00,
2013-01-02 04:52:00,29.5,27.5,30.21,North,0,0.0,0.0,92,0.00,,OVC036,0.00,VWS V12.08,2013-01-02 12:52:00,
2013-01-02 04:57:00,29.5,27.5,30.18,North,0,0.0,0.0,92,0.00,,OVC036,0.00,VWS V12.08,2013-01-02 12:57:00,
2013-01-02 05:02:00,29.5,27.5,30.18,North,0,0.0,0.0,92,0.00,,OVC036,0.00,VWS V12.08,2013-01-02 13:02:00,
2013-01-02 05:07:00,29.1,27.1,30.18,North,0,0.0,0.0,92,0.00,,OVC036,0.00,VWS V12.08,2013-01-02 13:07:00,
2013-01-02 05:12:00,28.9,26.9,30.18,North,0,0.0,0.0,92,0.00,,OVC036,0.00,VWS V12.08,2013-01-02 13:12:00,
2013-01-02 05:17:00,28.8,26.7,30.18,North,0,0.0,0.0,92,0.00,,OVC036,0.00,VWS V12.08,2013-01-02 13:17:00,
2013-01-02 05:22:00,28.6,26.6,30.18,North,0,0.0,0.0,92,0.00,,OVC036,0.00,VWS V12.08,2013-01-02 13:22:00,
2013-01-02 05:27:00,28.6,26.3,30.18,North,0,0.0,0.0,91,0.00,,OVC036,0.00,VWS V12.08,2013-01-02 13:27:00,
2013-01-02 05:32:00,28.6,26.3,30.18,North,0,0.0,0.0,91,0.00,,OVC036,0.00,VWS V12.08,2013-01-02 13:32:00,
2013-01-02 05:37:00,28.6,26.6,30.18,North,0,0.0,0.0,92,0.00,,OVC036,0.00,VWS V12.08,2013-01-02 13:37:00,
2013-01-02 05:42:00,28.4,26.4,30.18,North,0,0.0,0.0,92,0.00,,OVC036,0.00,VWS V12.08,2013-01-02 13:42:00,
2013-01-02 05:47:00,28.4,26.4,30.18,North,0,0.0,0.0,92,0.00,,OVC036,0.00,VWS V12.08,2013-01-02 13:47:00,
2013-01-02 05:52:00,28.4,26.4,30.18,North,0,0.0,0.0,92,0.00,,OVC036,0.00,VWS V12.08,2013-01-02 13:52:00,
2013-01-02 05:57:00,28.4,26.4,30.18,North,0,0.0,0.0,92,0.00,,OVC036,0.00,VWS V12.08,2013-01-02 13:57:00,
2013-01-02 06:02:00,28.4,26.4,30.18,North,0,0.0,0.0,92,0.00,,OVC036,0.00,VWS V12.08,2013-01-02 14:02:00,
2013-01-02 06:07:00,28.2,26.2,30.18,North,0,0.0,0.0,92,0.00,,OVC036,0.00,VWS V12.08,2013-01-02 14:07:00,
2013-01-02 06:12:00,28.2,26.5,30.18,North,0,0.0,0.0,93,0.00,,OVC036,0.00,VWS V12.08,2013-01-02 14:12:00,
2013-01-02 06:17:00,28.2,26.5,30.18,North,0,0.0,0.0,93,0.00,,OVC036,0.00,VWS V12.08,2013-01-02 14:17:00,
2013-01-02 06:22:00,28.2,26.5,30.18,North,0,0.0,0.0,93,0.00,,OVC036,0.00,VWS V12.08,2013-01-02 14:22:00,
2013-01-02 06:27:00,28.0,26.3,30.18,North,0,0.0,0.0,93,0.00,,OVC036,0.00,VWS V12.08,2013-01-02 14:27:00,
2013-01-02 06:32:00,28.0,26.3,30.18,North,0,0.0,0.0,93,0.00,,OVC036,0.00,VWS V12.08,2013-01-02 14:32:00,
2013-01-02 06:37:00,28.0,26.3,30.18,North,0,0.0,0.0,93,0.00,,OVC036,0.00,VWS V12.08,2013-01-02 14:37:00,
2013-01-02 06:42:00,28.0,26.3,30.18,North,0,0.0,0.0,93,0.00,,OVC036,0.00,VWS V12.08,2013-01-02 14:42:00,
2013-01-02 06:47:00,28.0,26.3,30.18,North,0,0.0,0.0,93,0.00,,OVC036,0.00,VWS V12.08,2013-01-02 14:47:00,
2013-01-02 06:52:00,28.0,26.3,30.18,North,0,0.0,0.0,93,0.00,,OVC036,0.00,VWS V12.08,2013-01-02 14:52:00,
2013-01-02 06:57:00,28.0,26.3,30.18,North,0,0.0,0.0,93,0.00,,OVC036,0.00,VWS V12.08,2013-01-02 14:57:00,
2013-01-02 07:02:00,27.9,26.1,30.18,North,0,0.0,0.0,93,0.00,,OVC036,0.00,VWS V12.08,2013-01-02 15:02:00,
2013-01-02 07:07:00,27.9,26.1,30.18,North,0,0.0,0.0,93,0.00,,OVC036,0.00,VWS V12.08,2013-01-02 15:07:00,
2013-01-02 07:12:00,27.9,26.1,30.18,North,0,0.0,0.0,93,0.00,,OVC036,0.00,VWS V12.08,2013-01-02 15:12:00,
2013-01-02 07:17:00,27.7,25.9,30.18,North,0,0.0,0.0,93,0.00,,OVC036,0.00,VWS V12.08,2013-01-02 15:17:00,
2013-01-02 07:22:00,27.7,25.9,30.18,North,0,0.0,0.0,93,0.00,,OVC036,0.00,VWS V12.08,2013-01-02 15:22:00,
2013-01-02 07:27:00,27.5,25.8,30.18,North,0,0.0,0.0,93,0.00,,OVC036,0.00,VWS V12.08,2013-01-02 15:27:00,
2013-01-02 07:32:00,27.5,25.8,30.18,North,0,0.0,0.0,93,0.00,,OVC036,0.00,VWS V12.08,2013-01-02 15:32:00,
2013-01-02 07:37:00,27.5,25.8,30.18,North,0,0.0,0.0,93,0.00,,OVC036,0.00,VWS V12.08,2013-01-02 15:37:00,
2013-01-02 07:42:00,27.3,25.6,30.18,North,0,0.0,0.0,93,0.00,,OVC036,0.00,VWS V12.08,2013-01-02 15:42:00,
2013-01-02 07:47:00,27.3,25.6,30.18,North,0,0.0,0.0,93,0.00,,OVC036,0.00,VWS V12.08,2013-01-02 15:47:00,
2013-01-02 07:52:00,27.5,26.0,30.18,North,0,0.0,0.0,94,0.00,,OVC036,0.00,VWS V12.08,2013-01-02 15:52:00,
2013-01-02 07:57:00,27.7,26.2,30.18,North,0,0.0,0.0,94,0.00,,OVC036,0.00,VWS V12.08,2013-01-02 15:57:00,
2013-01-02 08:02:00,27.7,26.2,30.18,North,0,0.0,0.0,94,0.00,,OVC036,0.00,VWS V12.08,2013-01-02 16:02:00,
2013-01-02 08:07:00,27.9,26.4,30.18,North,0,0.0,0.0,94,0.00,,OVC036,0.00,VWS V12.08,2013-01-02 16:07:00,
2013-01-02 08:12:00,27.9,26.4,30.18,North,0,0.0,0.0,94,0.00,,OVC036,0.00,VWS V12.08,2013-01-02 16:12:00,
2013-01-02 08:17:00,27.9,26.4,30.18,North,0,0.0,0.0,94,0.00,,OVC036,0.00,VWS V12.08,2013-01-02 16:17:00,
2013-01-02 08:22:00,28.4,26.9,30.18,North,0,0.0,0.0,94,0.00,,OVC036,0.00,VWS V12.08,2013-01-02 16:22:00,
2013-01-02 08:27:00,30.0,28.5,30.18,North,0,0.0,0.0,94,0.00,,OVC036,0.00,VWS V12.08,2013-01-02 16:27:00,
2013-01-02 08:32:00,31.5,29.7,30.18,North,0,0.0,0.0,93,0.00,,OVC036,0.00,VWS V12.08,2013-01-02 16:32:00,
2013-01-02 08:37:00,32.9,30.8,30.18,North,0,0.0,0.0,92,0.00,,OVC036,0.00,VWS V12.08,2013-01-02 16:37:00,
2013-01-02 08:42:00,34.0,31.6,30.21,North,0,0.0,0.0,91,0.00,,OVC036,0.00,VWS V12.08,2013-01-02 16:42:00,
2013-01-02 08:47:00,35.2,32.6,30.21,North,0,0.0,0.0,90,0.00,,OVC036,0.00,VWS V12.08,2013-01-02 16:47:00,
2013-01-02 08:52:00,37.4,34.5,30.21,North,0,0.0,0.0,89,0.00,,OVC036,0.00,VWS V12.08,2013-01-02 16:52:00,
2013-01-02 08:57:00,38.8,35.0,30.21,North,0,0.0,0.0,86,0.00,,OVC036,0.00,VWS V12.08,2013-01-02 16:57:00,
2013-01-02 09:02:00,40.6,34.7,30.21,North,0,0.0,0.0,79,0.00,,OVC036,0.00,VWS V12.08,2013-01-02 17:02:00,
2013-01-02 09:07:00,41.9,33.9,30.21,North,0,0.0,0.0,73,0.00,,OVC036,0.00,VWS V12.08,2013-01-02 17:07:00,
2013-01-02 09:12:00,39.2,24.8,30.21,North,0,0.0,0.0,56,0.00,,OVC036,0.00,VWS V12.08,2013-01-02 17:12:00,
2013-01-02 09:17:00,37.0,23.2,30.21,North,0,0.0,0.0,57,0.00,,OVC036,0.00,VWS V12.08,2013-01-02 17:17:00,
2013-01-02 09:22:00,36.3,25.3,30.21,North,0,0.0,0.0,64,0.00,,OVC036,0.00,VWS V12.08,2013-01-02 17:22:00,
2013-01-02 09:27:00,36.1,27.0,30.21,North,0,0.0,0.0,69,0.00,,OVC036,0.00,VWS V12.08,2013-01-02 17:27:00,
2013-01-02 09:32:00,36.5,29.0,30.21,North,0,0.0,0.0,74,0.00,,OVC036,0.00,VWS V12.08,2013-01-02 17:32:00,
2013-01-02 09:37:00,36.3,28.8,30.21,North,0,0.0,0.0,74,0.00,,OVC036,0.00,VWS V12.08,2013-01-02 17:37:00,
2013-01-02 09:42:00,36.0,28.8,30.21,North,0,0.0,0.0,75,0.00,,OVC036,0.00,VWS V12.08,2013-01-02 17:42:00,
2013-01-02 09:47:00,36.1,30.0,30.21,North,0,0.0,0.0,78,0.00,,OVC036,0.00,VWS V12.08,2013-01-02 17:47:00,
2013-01-02 09:52:00,36.0,29.1,30.21,North,0,0.0,0.0,76,0.00,,OVC036,0.00,VWS V12.08,2013-01-02 17:52:00,
2013-01-02 09:57:00,36.0,29.5,30.21,North,0,0.0,0.0,77,0.00,,OVC036,0.00,VWS V12.08,2013-01-02 17:57:00,
2013-01-02 10:02:00,36.1,29.3,30.21,North,0,0.0,0.0,76,0.00,,OVC036,0.00,VWS V12.08,2013-01-02 18:02:00,
2013-01-02 10:07:00,36.1,29.3,30.21,North,0,0.0,0.0,76,0.00,,OVC036,0.00,VWS V12.08,2013-01-02 18:07:00,
2013-01-02 10:12:00,36.1,28.7,30.21,North,0,0.0,0.0,74,0.00,,OVC036,0.00,VWS V12.08,2013-01-02 18:12:00,
2013-01-02 10:17:00,36.9,29.7,30.21,North,0,0.0,0.0,75,0.00,,OVC036,0.00,VWS V12.08,2013-01-02 18:17:00,
2013-01-02 10:22:00,37.2,29.4,30.21,North,0,0.0,0.0,73,0.00,,OVC036,0.00,VWS V12.08,2013-01-02 18:22:00,
2013-01-02 10:27:00,37.6,28.7,30.21,North,0,0.0,0.0,70,0.00,,OVC036,0.00,VWS V12.08,2013-01-02 18:27:00,
2013-01-02 10:32:00,37.6,26.9,30.21,North,0,0.0,0.0,65,0.00,,OVC036,0.00,VWS V12.08,2013-01-02 18:32:00,
2013-01-02 10:37:00,37.9,27.2,30.21,North,0,0.0,0.0,65,0.00,,OVC036,0.00,VWS V12.08,2013-01-02 18:37:00,
2013-01-02 10:42:00,38.7,28.3,30.21,North,0,0.0,0.0,66,0.04,,OVC036,0.04,VWS V12.08,2013-01-02 18:42:00,
2013-01-02 10:47:00,39.2,27.7,30.21,North,0,0.0,0.0,63,0.04,,OVC036,0.04,VWS V12.08,2013-01-02 18:47:00,
2013-01-02 10:52:00,39.7,28.2,30.21,North,0,0.0,0.0,63,0.04,,OVC036,0.04,VWS V12.08,2013-01-02 18:52:00,
2013-01-02 10:57:00,39.9,26.8,30.18,North,0,0.0,0.0,59,0.04,,OVC036,0.04,VWS V12.08,2013-01-02 18:57:00,
2013-01-02 11:02:00,39.9,26.8,30.18,North,0,0.0,0.0,59,0.04,,OVC036,0.04,VWS V12.08,2013-01-02 19:02:00,
2013-01-02 11:07:00,39.9,24.2,30.18,North,0,0.0,0.0,53,0.04,,OVC036,0.04,VWS V12.08,2013-01-02 19:07:00,
2013-01-02 11:12:00,39.9,21.3,30.18,North,0,0.0,0.0,47,0.04,,OVC036,0.04,VWS V12.08,2013-01-02 19:12:00,
2013-01-02 11:17:00,40.5,23.8,30.18,North,0,0.0,0.0,51,0.04,,OVC036,0.04,VWS V12.08,2013-01-02 19:17:00,
2013-01-02 11:22:00,40.6,21.5,30.18,North,0,0.0,0.0,46,0.04,,OVC036,0.04,VWS V12.08,2013-01-02 19:22:00,
2013-01-02 11:27:00,40.6,19.4,30.18,North,0,0.0,0.0,42,0.04,,OVC036,0.04,VWS V12.08,2013-01-02 19:27:00,
2013-01-02 11:32:00,40.1,17.7,30.18,North,0,0.0,0.0,40,0.04,,OVC036,0.04,VWS V12.08,2013-01-02 19:32:00,
2013-01-02 11:37:00,39.9,18.7,30.18,North,0,0.0,0.0,42,0.04,,OVC036,0.04,VWS V12.08,2013-01-02 19:37:00,
2013-01-02 11:42:00,39.9,18.7,30.18,North,0,0.0,0.0,42,0.00,,OVC036,0.04,VWS V12.08,2013-01-02 19:42:00,
2013-01-02 11:47:00,40.3,19.6,30.18,North,0,0.0,0.0,43,0.00,,OVC036,0.04,VWS V12.08,2013-01-02 19:47:00,
2013-01-02 11:52:00,40.3,19.6,30.18,North,0,0.0,0.0,43,0.00,,OVC036,0.04,VWS V12.08,2013-01-02 19:52:00,
2013-01-02 11:57:00,40.5,19.7,30.18,North,0,0.0,0.0,43,0.00,,OVC036,0.04,VWS V12.08,2013-01-02 19:57:00,
2013-01-02 12:02:00,40.3,19.6,30.18,North,0,0.0,0.0,43,0.00,,OVC036,0.04,VWS V12.08,2013-01-02 20:02:00,
2013-01-02 12:07:00,41.0,19.7,30.18,North,0,0.0,0.0,42,0.00,,OVC036,0.04,VWS V12.08,2013-01-02 20:07:00,
2013-01-02 12:12:00,41.7,19.8,30.18,North,0,0.0,0.0,41,0.00,,OVC036,0.04,VWS V12.08,2013-01-02 20:12:00,
2013-01-02 12:17:00,42.4,18.6,30.18,North,0,0.0,0.0,38,0.00,,OVC036,0.04,VWS V12.08,2013-01-02 20:17:00,
2013-01-02 12:22:00,42.6,18.8,30.15,North,0,0.0,0.0,38,0.00,,OVC036,0.04,VWS V12.08,2013-01-02 20:22:00,
2013-01-02 12:27:00,41.9,18.2,30.15,North,0,0.0,0.0,38,0.00,,OVC036,0.04,VWS V12.08,2013-01-02 20:27:00,
2013-01-02 12:32:00,42.3,18.5,30.15,North,0,0.0,0.0,38,0.00,,OVC036,0.04,VWS V12.08,2013-01-02 20:32:00,
2013-01-02 12:37:00,42.8,15.0,30.15,North,0,0.0,0.0,32,0.00,,OVC036,0.04,VWS V12.08,2013-01-02 20:37:00,
2013-01-02 12:42:00,42.6,16.2,30.15,North,0,0.0,0.0,34,0.00,,OVC036,0.04,VWS V12.08,2013-01-02 20:42:00,
2013-01-02 12:47:00,43.2,15.3,30.15,North,0,0.0,0.0,32,0.00,,OVC036,0.04,VWS V12.08,2013-01-02 20:47:00,
2013-01-02 12:52:00,43.5,14.2,30.15,North,0,0.0,0.0,30,0.00,,OVC036,0.04,VWS V12.08,2013-01-02 20:52:00,
2013-01-02 12:57:00,43.9,13.7,30.15,North,0,0.0,0.0,29,0.00,,OVC036,0.04,VWS V12.08,2013-01-02 20:57:00,
2013-01-02 13:02:00,44.1,13.9,30.15,North,0,0.0,0.0,29,0.00,,OVC036,0.04,VWS V12.08,2013-01-02 21:02:00,
2013-01-02 13:08:00,44.1,13.9,30.15,North,0,0.0,0.0,29,0.00,,OVC036,0.04,VWS V12.08,2013-01-02 21:08:00,
2013-01-02 13:13:00,44.1,13.1,30.15,North,0,0.0,0.0,28,0.00,,OVC036,0.04,VWS V12.08,2013-01-02 21:13:00,
2013-01-02 13:18:00,44.1,13.1,30.15,North,0,0.0,0.0,28,0.00,,OVC036,0.04,VWS V12.08,2013-01-02 21:18:00,
2013-01-02 13:23:00,44.8,13.7,30.15,North,0,0.0,0.0,28,0.00,,OVC036,0.04,VWS V12.08,2013-01-02 21:23:00,
2013-01-02 13:28:00,44.8,12.9,30.15,North,0,0.0,0.0,27,0.00,,OVC036,0.04,VWS V12.08,2013-01-02 21:28:00,
2013-01-02 13:33:00,44.8,12.9,30.15,North,0,0.0,0.0,27,0.00,,OVC036,0.04,VWS V12.08,2013-01-02 21:33:00,
2013-01-02 13:38:00,45.0,13.0,30.15,North,0,0.0,0.0,27,0.00,,OVC036,0.04,VWS V12.08,2013-01-02 21:38:00,
2013-01-02 13:43:00,44.8,11.1,30.12,North,0,0.0,0.0,25,0.00,,OVC036,0.04,VWS V12.08,2013-01-02 21:43:00,
2013-01-02 13:48:00,45.1,11.4,30.12,North,0,0.0,0.0,25,0.00,,OVC036,0.04,VWS V12.08,2013-01-02 21:48:00,
2013-01-02 13:53:00,45.1,8.6,30.12,North,0,0.0,0.0,22,0.00,,OVC036,0.04,VWS V12.08,2013-01-02 21:53:00,
2013-01-02 13:58:00,45.1,8.6,30.12,North,0,0.0,0.0,22,0.00,,OVC036,0.04,VWS V12.08,2013-01-02 21:58:00,
2013-01-02 14:03:00,45.3,6.6,30.12,North,0,0.0,0.0,20,0.00,,OVC036,0.04,VWS V12.08,2013-01-02 22:03:00,
2013-01-02 14:08:00,45.5,8.9,30.12,North,0,0.0,0.0,22,0.00,,OVC036,0.04,VWS V12.08,2013-01-02 22:08:00,
2013-01-02 14:13:00,45.3,6.6,30.12,North,0,0.0,0.0,20,0.00,,OVC036,0.04,VWS V12.08,2013-01-02 22:13:00,
2013-01-02 14:18:00,45.1,6.5,30.12,North,0,0.0,0.0,20,0.00,,OVC036,0.04,VWS V12.08,2013-01-02 22:18:00,
2013-01-02 14:23:00,45.3,8.7,30.12,North,0,0.0,0.0,22,0.00,,OVC036,0.04,VWS V12.08,2013-01-02 22:23:00,
2013-01-02 14:28:00,45.1,8.6,30.12,North,0,0.0,0.0,22,0.00,,OVC036,0.04,VWS V12.08,2013-01-02 22:28:00,
2013-01-02 14:33:00,45.1,8.6,30.12,North,0,0.0,0.0,22,0.00,,OVC036,0.04,VWS V12.08,2013-01-02 22:33:00,
2013-01-02 14:38:00,44.6,6.0,30.12,North,0,0.0,0.0,20,0.00,,OVC036,0.04,VWS V12.08,2013-01-02 22:38:00,
2013-01-02 14:43:00,44.8,6.2,30.12,North,0,0.0,0.0,20,0.00,,OVC036,0.04,VWS V12.08,2013-01-02 22:43:00,
2013-01-02 14:48:00,44.8,6.2,30.12,North,0,0.0,0.0,20,0.00,,OVC036,0.04,VWS V12.08,2013-01-02 22:48:00,
2013-01-02 14:53:00,45.0,6.3,30.12,North,0,0.0,0.0,20,0.00,,OVC036,0.04,VWS V12.08,2013-01-02 22:53:00,
2013-01-02 14:58:00,44.8,8.3,30.12,North,0,0.0,0.0,22,0.00,,OVC036,0.04,VWS V12.08,2013-01-02 22:58:00,
2013-01-02 15:03:00,44.8,11.1,30.12,North,0,0.0,0.0,25,0.00,,OVC036,0.04,VWS V12.08,2013-01-02 23:03:00,
2013-01-02 15:08:00,44.8,11.1,30.12,North,0,0.0,0.0,25,0.00,,OVC036,0.04,VWS V12.08,2013-01-02 23:08:00,
2013-01-02 15:13:00,44.4,13.4,30.12,North,0,0.0,0.0,28,0.00,,OVC036,0.04,VWS V12.08,2013-01-02 23:13:00,
2013-01-02 15:18:00,44.1,13.9,30.12,North,0,0.0,0.0,29,0.00,,OVC036,0.04,VWS V12.08,2013-01-02 23:18:00,
2013-01-02 15:23:00,43.5,13.4,30.12,North,0,0.0,0.0,29,0.00,,OVC036,0.04,VWS V12.08,2013-01-02 23:23:00,
2013-01-02 15:28:00,43.0,12.9,30.12,North,0,0.0,0.0,29,0.00,,OVC036,0.04,VWS V12.08,2013-01-02 23:28:00,
2013-01-02 15:33:00,42.6,13.4,30.12,North,0,0.0,0.0,30,0.00,,OVC036,0.04,VWS V12.08,2013-01-02 23:33:00,
2013-01-02 15:38:00,42.1,13.6,30.12,North,0,0.0,0.0,31,0.00,,OVC036,0.04,VWS V12.08,2013-01-02 23:38:00,
2013-01-02 15:43:00,41.5,13.9,30.12,North,0,0.0,0.0,32,0.00,,OVC036,0.04,VWS V12.08,2013-01-02 23:43:00,
2013-01-02 15:48:00,41.0,14.1,30.12,North,0,0.0,0.0,33,0.00,,OVC036,0.04,VWS V12.08,2013-01-02 23:48:00,
2013-01-02 15:53:00,40.6,15.1,30.12,North,0,0.0,0.0,35,0.00,,OVC036,0.04,VWS V12.08,2013-01-02 23:53:00,
2013-01-02 15:58:00,40.3,16.1,30.12,North,0,0.0,0.0,37,0.00,,OVC036,0.04,VWS V12.08,2013-01-02 23:58:00,
2013-01-02 16:03:00,39.9,16.4,30.12,North,0,0.0,0.0,38,0.00,,OVC036,0.04,VWS V12.08,2013-01-03 00:03:00,
2013-01-02 16:08:00,39.4,16.5,30.12,North,0,0.0,0.0,39,0.00,,OVC036,0.04,VWS V12.08,2013-01-03 00:08:00,
2013-01-02 16:13:00,39.0,16.8,30.12,North,0,0.0,0.0,40,0.00,,OVC036,0.04,VWS V12.08,2013-01-03 00:13:00,
2013-01-02 16:18:00,38.7,17.6,30.12,North,0,0.0,0.0,42,0.00,,OVC036,0.04,VWS V12.08,2013-01-03 00:18:00,
2013-01-02 16:23:00,38.1,17.6,30.12,North,0,0.0,0.0,43,0.00,,OVC036,0.04,VWS V12.08,2013-01-03 00:23:00,
2013-01-02 16:28:00,37.6,17.1,30.12,North,0,0.0,0.0,43,0.00,,OVC036,0.04,VWS V12.08,2013-01-03 00:28:00,
2013-01-02 16:34:00,37.2,17.9,30.12,North,0,0.0,0.0,45,0.00,,OVC036,0.04,VWS V12.08,2013-01-03 00:34:00,
2013-01-02 16:39:00,36.9,18.0,30.12,North,0,0.0,0.0,46,0.00,,OVC036,0.04,VWS V12.08,2013-01-03 00:39:00,
2013-01-02 16:44:00,36.3,18.5,30.12,North,0,0.0,0.0,48,0.00,,OVC036,0.04,VWS V12.08,2013-01-03 00:44:00,
2013-01-02 16:49:00,35.8,19.0,30.12,North,0,0.0,0.0,50,0.00,,OVC036,0.04,VWS V12.08,2013-01-03 00:49:00,
2013-01-02 16:54:00,35.6,18.8,30.12,North,0,0.0,0.0,50,0.00,,OVC036,0.04,VWS V12.08,2013-01-03 00:54:00,
2013-01-02 16:59:00,35.4,19.1,30.12,North,0,0.0,0.0,51,0.00,,OVC036,0.04,VWS V12.08,2013-01-03 00:59:00,
2013-01-02 17:04:00,35.1,19.2,30.12,North,0,0.0,0.0,52,0.00,,OVC036,0.04,VWS V12.08,2013-01-03 01:04:00,
2013-01-02 17:09:00,34.7,19.8,30.12,North,0,0.0,0.0,54,0.00,,OVC036,0.04,VWS V12.08,2013-01-03 01:09:00,
2013-01-02 17:14:00,34.5,20.0,30.12,North,0,0.0,0.0,55,0.00,,OVC036,0.04,VWS V12.08,2013-01-03 01:14:00,
2013-01-02 17:19:00,34.3,19.4,30.12,North,0,0.0,0.0,54,0.00,,OVC036,0.04,VWS V12.08,2013-01-03 01:19:00,
2013-01-02 17:24:00,34.3,19.9,30.12,North,0,0.0,0.0,55,0.00,,OVC036,0.04,VWS V12.08,2013-01-03 01:24:00,
2013-01-02 17:29:00,34.2,20.1,30.12,North,0,0.0,0.0,56,0.00,,OVC036,0.04,VWS V12.08,2013-01-03 01:29:00,
2013-01-02 17:34:00,34.0,20.0,30.12,North,0,0.0,0.0,56,0.00,,OVC036,0.04,VWS V12.08,2013-01-03 01:34:00,
2013-01-02 17:39:00,33.6,19.6,30.12,North,0,0.0,0.0,56,0.00,,OVC036,0.04,VWS V12.08,2013-01-03 01:39:00,
2013-01-02 17:44:00,33.4,19.9,30.12,North,0,0.0,0.0,57,0.00,,OVC036,0.04,VWS V12.08,2013-01-03 01:44:00,
2013-01-02 17:49:00,33.3,19.7,30.12,North,0,0.0,0.0,57,0.00,,OVC036,0.04,VWS V12.08,2013-01-03 01:49:00,
2013-01-02 17:54:00,33.1,19.5,30.12,North,0,0.0,0.0,57,0.00,,OVC036,0.04,VWS V12.08,2013-01-03 01:54:00,
2013-01-02 17:59:00,32.9,19.8,30.12,North,0,0.0,0.0,58,0.00,,OVC036,0.04,VWS V12.08,2013-01-03 01:59:00,
2013-01-02 18:04:00,32.7,20.0,30.12,North,0,0.0,0.0,59,0.00,,OVC036,0.04,VWS V12.08,2013-01-03 02:04:00,
2013-01-02 18:09:00,32.7,20.8,30.12,North,0,0.0,0.0,61,0.00,,OVC036,0.04,VWS V12.08,2013-01-03 02:09:00,
2013-01-02 18:14:00,32.5,20.6,30.12,North,0,0.0,0.0,61,0.00,,OVC036,0.04,VWS V12.08,2013-01-03 02:14:00,
2013-01-02 18:19:00,32.4,20.8,30.12,North,0,0.0,0.0,62,0.00,,OVC036,0.04,VWS V12.08,2013-01-03 02:19:00,
2013-01-02 18:24:00,32.4,21.2,30.12,North,0,0.0,0.0,63,0.00,,OVC036,0.04,VWS V12.08,2013-01-03 02:24:00,
2013-01-02 18:29:00,32.2,21.0,30.12,North,0,0.0,0.0,63,0.00,,OVC036,0.04,VWS V12.08,2013-01-03 02:29:00,
2013-01-02 18:34:00,31.8,20.7,30.12,North,0,0.0,0.0,63,0.00,,OVC036,0.04,VWS V12.08,2013-01-03 02:34:00,
2013-01-02 18:39:00,31.8,21.0,30.12,North,0,0.0,0.0,64,0.00,,OVC036,0.04,VWS V12.08,2013-01-03 02:39:00,
2013-01-02 18:44:00,31.6,20.9,30.12,North,0,0.0,0.0,64,0.00,,OVC036,0.04,VWS V12.08,2013-01-03 02:44:00,
2013-01-02 18:49:00,31.6,20.9,30.12,North,0,0.0,0.0,64,0.00,,OVC036,0.04,VWS V12.08,2013-01-03 02:49:00,
2013-01-02 18:54:00,31.5,20.7,30.12,North,0,0.0,0.0,64,0.00,,OVC036,0.04,VWS V12.08,2013-01-03 02:54:00,
2013-01-02 18:59:00,31.3,20.5,30.12,North,0,0.0,0.0,64,0.00,,OVC036,0.04,VWS V12.08,2013-01-03 02:59:00,
2013-01-02 19:04:00,31.3,20.5,30.12,North,0,0.0,0.0,64,0.00,,OVC036,0.04,VWS V12.08,2013-01-03 03:04:00,
2013-01-02 19:09:00,31.1,20.7,30.12,North,0,0.0,0.0,65,0.00,,OVC036,0.04,VWS V12.08,2013-01-03 03:09:00,
2013-01-02 19:14:00,31.1,20.7,30.12,North,0,0.0,0.0,65,0.00,,OVC036,0.04,VWS V12.08,2013-01-03 03:14:00,
2013-01-02 19:19:00,31.1,21.1,30.12,North,0,0.0,0.0,66,0.00,,OVC036,0.04,VWS V12.08,2013-01-03 03:19:00,
2013-01-02 19:24:00,30.9,20.9,30.12,North,0,0.0,0.0,66,0.00,,OVC036,0.04,VWS V12.08,2013-01-03 03:24:00,
2013-01-02 19:30:00,30.9,20.9,30.12,North,0,0.0,0.0,66,0.00,,OVC036,0.04,VWS V12.08,2013-01-03 03:30:00,
2013-01-02 19:35:00,30.9,20.9,30.12,North,0,0.0,0.0,66,0.00,,OVC036,0.04,VWS V12.08,2013-01-03 03:35:00,
2013-01-02 19:40:00,30.7,20.7,30.12,North,0,0.0,0.0,66,0.00,,OVC036,0.04,VWS V12.08,2013-01-03 03:40:00,
2013-01-02 19:45:00,30.6,20.6,30.12,North,0,0.0,0.0,66,0.00,,OVC036,0.04,VWS V12.08,2013-01-03 03:45:00,
2013-01-02 19:50:00,30.6,20.6,30.12,North,0,0.0,0.0,66,0.00,,OVC036,0.04,VWS V12.08,2013-01-03 03:50:00,
2013-01-02 19:55:00,30.4,20.8,30.12,North,0,0.0,0.0,67,0.00,,OVC036,0.04,VWS V12.08,2013-01-03 03:55:00,
2013-01-02 20:00:00,30.2,20.6,30.12,North,0,0.0,0.0,67,0.00,,OVC036,0.04,VWS V12.08,2013-01-03 04:00:00,
2013-01-02 20:05:00,30.2,20.9,30.12,North,0,0.0,0.0,68,0.00,,OVC036,0.04,VWS V12.08,2013-01-03 04:05:00,
2013-01-02 20:10:00,30.2,20.9,30.12,North,0,0.0,0.0,68,0.00,,OVC036,0.04,VWS V12.08,2013-01-03 04:10:00,
2013-01-02 20:15:00,30.2,20.9,30.12,North,0,0.0,0.0,68,0.00,,OVC036,0.04,VWS V12.08,2013-01-03 04:15:00,
2013-01-02 20:20:00,30.2,20.9,30.12,North,0,0.0,0.0,68,0.00,,OVC036,0.04,VWS V12.08,2013-01-03 04:20:00,
2013-01-02 20:25:00,30.0,21.1,30.12,North,0,0.0,0.0,69,0.00,,OVC036,0.04,VWS V12.08,2013-01-03 04:25:00,
2013-01-02 20:30:00,30.0,21.1,30.12,North,0,0.0,0.0,69,0.00,,OVC036,0.04,VWS V12.08,2013-01-03 04:30:00,
2013-01-02 20:35:00,29.8,21.3,30.12,North,0,0.0,0.0,70,0.00,,OVC036,0.04,VWS V12.08,2013-01-03 04:35:00,
2013-01-02 20:40:00,29.8,21.3,30.09,North,0,0.0,0.0,70,0.00,,OVC036,0.04,VWS V12.08,2013-01-03 04:40:00,
2013-01-02 20:45:00,29.7,21.1,30.09,North,0,0.0,0.0,70,0.00,,OVC036,0.04,VWS V12.08,2013-01-03 04:45:00,
2013-01-02 20:50:00,29.7,21.4,30.09,North,0,0.0,0.0,71,0.00,,OVC036,0.04,VWS V12.08,2013-01-03 04:50:00,
2013-01-02 20:55:00,29.5,21.2,30.12,North,0,0.0,0.0,71,0.00,,OVC036,0.04,VWS V12.08,2013-01-03 04:55:00,
2013-01-02 21:00:00,29.5,21.2,30.12,North,0,0.0,0.0,71,0.00,,OVC036,0.04,VWS V12.08,2013-01-03 05:00:00,
2013-01-02 21:01:00,29.5,21.2,30.12,North,0,0.0,0.0,71,0.00,,OVC036,0.04,VWS V12.08,2013-01-03 05:01:00,
2013-01-02 21:02:00,29.5,21.2,30.12,North,0,0.0,0.0,71,0.00,,OVC036,0.04,VWS V12.08,2013-01-03 05:02:00,
2013-01-02 21:07:00,29.5,21.6,30.12,North,0,0.0,0.0,72,0.00,,OVC036,0.04,VWS V12.08,2013-01-03 05:07:00,
2013-01-02 21:12:00,29.5,21.6,30.09,North,0,0.0,0.0,72,0.00,,OVC036,0.04,VWS V12.08,2013-01-03 05:12:00,
2013-01-02 21:17:00,29.3,21.4,30.09,North,0,0.0,0.0,72,0.00,,OVC036,0.04,VWS V12.08,2013-01-03 05:17:00,
2013-01-02 21:22:00,29.1,21.2,30.09,North,0,0.0,0.0,72,0.00,,OVC036,0.04,VWS V12.08,2013-01-03 05:22:00,
2013-01-02 21:27:00,29.1,21.2,30.09,North,0,0.0,0.0,72,0.00,,OVC036,0.04,VWS V12.08,2013-01-03 05:27:00,
2013-01-02 21:32:00,28.9,21.4,30.09,North,0,0.0,0.0,73,0.00,,OVC036,0.04,VWS V12.08,2013-01-03 05:32:00,
2013-01-02 21:37:00,28.9,21.4,30.09,North,0,0.0,0.0,73,0.00,,OVC036,0.04,VWS V12.08,2013-01-03 05:37:00,
2013-01-02 21:42:00,28.9,21.7,30.09,North,0,0.0,0.0,74,0.00,,OVC036,0.04,VWS V12.08,2013-01-03 05:42:00,
2013-01-02 21:47:00,28.8,21.5,30.09,North,0,0.0,0.0,74,0.00,,OVC036,0.04,VWS V12.08,2013-01-03 05:47:00,
2013-01-02 21:52:00,28.6,21.4,30.09,North,0,0.0,0.0,74,0.00,,OVC036,0.04,VWS V12.08,2013-01-03 05:52:00,
2013-01-02 21:57:00,28.6,21.7,30.09,North,0,0.0,0.0,75,0.00,,OVC036,0.04,VWS V12.08,2013-01-03 05:57:00,
2013-01-02 22:02:00,28.6,21.7,30.09,North,0,0.0,0.0,75,0.00,,OVC036,0.04,VWS V12.08,2013-01-03 06:02:00,
2013-01-02 22:07:00,28.6,21.7,30.09,North,0,0.0,0.0,75,0.00,,OVC036,0.04,VWS V12.08,2013-01-03 06:07:00,
2013-01-02 22:12:00,28.4,21.8,30.09,North,0,0.0,0.0,76,0.00,,OVC036,0.04,VWS V12.08,2013-01-03 06:12:00,
2013-01-02 22:17:00,28.4,21.8,30.09,North,0,0.0,0.0,76,0.00,,OVC036,0.04,VWS V12.08,2013-01-03 06:17:00,
2013-01-02 22:22:00,28.2,21.6,30.09,North,0,0.0,0.0,76,0.00,,OVC036,0.04,VWS V12.08,2013-01-03 06:22:00,
2013-01-02 22:27:00,28.2,21.6,30.09,North,0,0.0,0.0,76,0.00,,OVC036,0.04,VWS V12.08,2013-01-03 06:27:00,
2013-01-02 22:32:00,28.2,21.6,30.09,North,0,0.0,0.0,76,0.00,,OVC036,0.04,VWS V12.08,2013-01-03 06:32:00,
2013-01-02 22:37:00,28.0,21.8,30.09,North,0,0.0,0.0,77,0.00,,OVC036,0.04,VWS V12.08,2013-01-03 06:37:00,
2013-01-02 22:42:00,28.0,21.8,30.09,North,0,0.0,0.0,77,0.00,,OVC036,0.04,VWS V12.08,2013-01-03 06:42:00,
2013-01-02 22:47:00,27.9,21.3,30.09,North,0,0.0,0.0,76,0.00,,OVC036,0.04,VWS V12.08,2013-01-03 06:47:00,
2013-01-02 22:52:00,27.9,21.6,30.09,North,0,0.0,0.0,77,0.00,,OVC036,0.04,VWS V12.08,2013-01-03 06:52:00,
2013-01-02 22:57:00,27.9,21.6,30.09,North,0,0.0,0.0,77,0.00,,OVC036,0.04,VWS V12.08,2013-01-03 06:57:00,
2013-01-02 23:02:00,27.9,21.6,30.09,North,0,0.0,0.0,77,0.00,,OVC036,0.04,VWS V12.08,2013-01-03 07:02:00,
2013-01-02 23:07:00,27.9,21.6,30.09,North,0,0.0,0.0,77,0.00,,OVC036,0.04,VWS V12.08,2013-01-03 07:07:00,
2013-01-02 23:12:00,27.9,21.9,30.09,North,0,0.0,0.0,78,0.00,,OVC036,0.04,VWS V12.08,2013-01-03 07:12:00,
2013-01-02 23:17:00,27.9,21.9,30.09,North,0,0.0,0.0,78,0.00,,OVC036,0.04,VWS V12.08,2013-01-03 07:17:00,
2013-01-02 23:22:00,27.9,22.2,30.09,North,0,0.0,0.0,79,0.00,,OVC036,0.04,VWS V12.08,2013-01-03 07:22:00,
2013-01-02 23:27:00,27.7,22.0,30.09,North,0,0.0,0.0,79,0.00,,OVC036,0.04,VWS V12.08,2013-01-03 07:27:00,
2013-01-02 23:32:00,27.5,21.9,30.09,North,0,0.0,0.0,79,0.00,,OVC036,0.04,VWS V12.08,2013-01-03 07:32:00,
2013-01-02 23:37:00,27.5,21.9,30.09,North,0,0.0,0.0,79,0.00,,OVC036,0.04,VWS V12.08,2013-01-03 07:37:00,
2013-01-02 23:42:00,27.5,21.9,30.09,North,0,0.0,0.0,79,0.00,,OVC036,0.04,VWS V12.08,2013-01-03 07:42:00,
2013-01-02 23:47:00,27.3,21.7,30.09,North,0,0.0,0.0,79,0.00,,OVC036,0.04,VWS V12.08,2013-01-03 07:47:00,
2013-01-02 23:52:00,27.3,21.7,30.09,North,0,0.0,0.0,79,0.00,,OVC036,0.04,VWS V12.08,2013-01-03 07:52:00,
2013-01-02 23:57:00,27.3,22.0,30.09,North,0,0.0,0.0,80,0.00,,OVC036,0.04,VWS V12.08,2013-01-03 07:57:00,